Terminal Aerodrome Forecast
Issued by NWS

Home | Current Version | Previous Version | Text Only | Print | Product List | Glossary On
Versions: 1 2 3 4 5 6 7 8 9 10 11 12 13 14 15 16
000
FTUS46 KPQR 262334
TAFONP
TAF
KONP 262334Z 2700/2724 21007KT P6SM -SHRA BKN025 BKN040
     FM270300 21006KT P6SM VCSH SCT025 BKN040
     FM271600 21006KT P6SM -SHRA SCT025 BKN040
     FM272100 27012KT P6SM -SHRA BKN025 BKN040=

USA.gov is the U.S. government's official web portal to all federal, state and local government web resources and services.